createdAt,value
2019-02-20T00:04:35.121Z,0
2019-02-20T00:09:35.489Z,0
2019-02-20T00:14:35.235Z,0
2019-02-20T00:19:35.058Z,0
2019-02-20T00:24:35.754Z,0
2019-02-20T00:29:35.530Z,0
2019-02-20T00:34:35.400Z,0
2019-02-20T00:39:35.148Z,0
2019-02-20T00:44:35.945Z,0
2019-02-20T00:49:35.705Z,0
2019-02-20T00:54:35.832Z,0
2019-02-20T00:59:35.660Z,0
2019-02-20T01:04:35.499Z,0
2019-02-20T01:09:35.011Z,0
2019-02-20T01:14:35.765Z,0
2019-02-20T01:19:35.814Z,0
2019-02-20T01:24:35.664Z,0
2019-02-20T01:29:35.398Z,0
2019-02-20T01:34:35.257Z,0
2019-02-20T01:39:36.069Z,0
2019-02-20T01:44:35.764Z,0
2019-02-20T01:49:35.500Z,0
2019-02-20T01:54:35.265Z,0
2019-02-20T01:59:36.015Z,0
2019-02-20T02:04:35.998Z,0
2019-02-20T02:09:35.808Z,0
2019-02-20T02:14:35.618Z,0
2019-02-20T02:19:35.841Z,0
2019-02-20T02:24:35.614Z,0
2019-02-20T02:29:35.285Z,0
2019-02-20T02:34:36.129Z,0
2019-02-20T02:39:35.845Z,0
2019-02-20T02:44:35.632Z,0
2019-02-20T02:49:35.376Z,0
2019-02-20T02:54:35.461Z,0
2019-02-20T02:59:35.207Z,0
2019-02-20T03:04:36.275Z,0
2019-02-20T03:09:35.419Z,0
2019-02-20T03:14:35.478Z,0
2019-02-20T03:19:35.665Z,0
2019-02-20T03:24:35.457Z,0
2019-02-20T03:29:36.211Z,0
2019-02-20T03:34:35.236Z,0
2019-02-20T03:39:36.010Z,0
2019-02-20T03:44:35.805Z,0
2019-02-20T03:49:35.586Z,0
2019-02-20T03:54:35.325Z,0
2019-02-20T03:59:35.967Z,0
2019-02-20T04:04:35.797Z,0
2019-02-20T04:09:35.341Z,0
2019-02-20T04:14:36.106Z,0
2019-02-20T04:19:35.892Z,0
2019-02-20T04:24:35.623Z,0
2019-02-20T04:29:35.414Z,0
2019-02-20T04:34:36.265Z,0
2019-02-20T04:39:36.023Z,0
2019-02-20T04:44:35.770Z,0
2019-02-20T04:49:35.570Z,0
2019-02-20T04:54:35.327Z,0
2019-02-20T04:59:36.323Z,0
2019-02-20T05:04:36.512Z,0
2019-02-20T05:09:35.547Z,0
2019-02-20T05:14:35.441Z,0
2019-02-20T05:19:36.236Z,0
2019-02-20T05:24:36.010Z,0
2019-02-20T05:29:35.916Z,0
2019-02-20T05:34:35.803Z,0
2019-02-20T05:39:35.688Z,0
2019-02-20T05:44:35.496Z,0
2019-02-20T05:49:36.282Z,0
2019-02-20T05:54:36.057Z,0
2019-02-20T05:59:35.807Z,0
2019-02-20T06:04:35.677Z,0
2019-02-20T06:09:35.818Z,0
2019-02-20T06:14:35.602Z,0
2019-02-20T06:19:35.416Z,0
2019-02-20T06:24:43.942Z,0
2019-02-20T06:29:36.392Z,0
2019-02-20T06:34:36.238Z,0
2019-02-20T06:39:36.043Z,0
2019-02-20T06:44:35.503Z,7.5
2019-02-20T06:49:35.508Z,7.5
2019-02-20T06:54:35.909Z,11.8
2019-02-20T06:59:35.679Z,11.8
2019-02-20T07:04:35.630Z,20
2019-02-20T07:09:35.586Z,20
2019-02-20T07:14:36.425Z,32.5
2019-02-20T07:19:35.875Z,32.5
2019-02-20T07:24:35.621Z,38
2019-02-20T07:29:36.412Z,38
2019-02-20T07:34:36.302Z,45
2019-02-20T07:39:36.135Z,45
2019-02-20T07:44:35.955Z,53.5
2019-02-20T07:49:36.079Z,53.5
2019-02-20T07:54:35.960Z,64.4
2019-02-20T07:59:36.265Z,64.4
2019-02-20T08:04:36.099Z,66
2019-02-20T08:09:36.094Z,66
2019-02-20T08:14:35.934Z,95.2
2019-02-20T08:19:35.813Z,95.2
2019-02-20T08:24:36.256Z,116.2
2019-02-20T08:29:36.060Z,116.2
2019-02-20T08:34:36.177Z,103.5
2019-02-20T08:39:36.035Z,103.5
2019-02-20T08:44:35.825Z,104.2
2019-02-20T08:49:35.681Z,104.2
2019-02-20T08:54:36.080Z,145.8
2019-02-20T08:59:35.825Z,145.8
2019-02-20T09:04:35.851Z,128
2019-02-20T09:09:36.152Z,128
2019-02-20T09:14:36.029Z,121.6
2019-02-20T09:19:35.955Z,121.6
2019-02-20T09:24:35.704Z,104.3
2019-02-20T09:29:35.680Z,104.3
2019-02-20T09:34:35.969Z,146.7
2019-02-20T09:39:35.755Z,146.7
2019-02-20T09:44:35.693Z,132.3
2019-02-20T09:49:36.485Z,132.3
2019-02-20T09:54:36.218Z,96.2
2019-02-20T09:59:36.492Z,96.2
2019-02-20T10:04:36.451Z,127.2
2019-02-20T10:09:36.692Z,127.2
2019-02-20T10:14:36.509Z,127.2
2019-02-20T10:19:36.494Z,127.2
2019-02-20T10:24:36.324Z,125
2019-02-20T10:29:36.223Z,125
2019-02-20T10:34:36.075Z,128.4
2019-02-20T10:39:35.937Z,128.4
2019-02-20T10:44:35.748Z,109.2
2019-02-20T10:49:36.598Z,109.2
2019-02-20T10:54:36.459Z,130.6
2019-02-20T10:59:36.225Z,130.6
2019-02-20T11:04:36.216Z,147
2019-02-20T11:09:36.522Z,147
2019-02-20T11:14:37.744Z,193.2
2019-02-20T11:19:35.798Z,193.2
2019-02-20T11:24:35.919Z,188.2
2019-02-20T11:29:35.778Z,188.2
2019-02-20T11:34:35.841Z,174
2019-02-20T11:39:37.918Z,174
2019-02-20T11:44:36.257Z,179.4
2019-02-20T11:49:36.257Z,179.4
2019-02-20T11:54:36.098Z,132.5
2019-02-20T11:59:35.902Z,132.5
2019-02-20T12:04:36.758Z,115
2019-02-20T12:09:36.707Z,115
2019-02-20T12:14:36.601Z,127.6
2019-02-20T12:19:36.434Z,127.6
2019-02-20T12:24:36.235Z,143.2
2019-02-20T12:29:36.016Z,143.2
2019-02-20T12:34:35.969Z,150.2
2019-02-20T12:39:36.741Z,150.2
2019-02-20T12:44:36.670Z,151
2019-02-20T12:49:36.518Z,151
2019-02-20T12:54:36.611Z,111.8
2019-02-20T12:59:36.813Z,111.8
2019-02-20T13:04:36.742Z,138.8
2019-02-20T13:09:36.838Z,138.8
2019-02-20T13:14:36.566Z,213
2019-02-20T13:19:36.369Z,213
2019-02-20T13:24:36.598Z,135.8
2019-02-20T13:29:36.405Z,135.8
2019-02-20T13:34:36.332Z,131.6
2019-02-20T13:39:36.074Z,131.6
2019-02-20T13:44:36.267Z,166.5
2019-02-20T13:49:36.115Z,166.5
2019-02-20T13:54:35.916Z,249.2
2019-02-20T13:59:36.803Z,249.2
2019-02-20T14:04:36.906Z,171.7
2019-02-20T14:09:36.522Z,171.7
2019-02-20T14:14:36.909Z,249.2
2019-02-20T14:19:36.869Z,249.2
2019-02-20T14:24:36.718Z,108.8
2019-02-20T14:29:36.362Z,108.8
2019-02-20T14:34:36.244Z,137.5
2019-02-20T14:39:36.090Z,137.5
2019-02-20T14:44:35.928Z,84.8
2019-02-20T14:49:36.715Z,84.8
2019-02-20T14:54:36.600Z,191
2019-02-20T14:59:36.470Z,191
2019-02-20T15:04:36.473Z,96.4
2019-02-20T15:09:36.419Z,96.4
2019-02-20T15:14:36.879Z,82.4
2019-02-20T15:19:36.653Z,82.4
2019-02-20T15:24:36.572Z,49.5
2019-02-20T15:29:36.379Z,49.5
2019-02-20T15:34:36.217Z,54.7
2019-02-20T15:39:35.997Z,54.7
2019-02-20T15:44:36.888Z,36
2019-02-20T15:49:36.718Z,36
2019-02-20T15:54:37.379Z,17
2019-02-20T15:59:36.599Z,17
2019-02-20T16:04:36.527Z,11.5
2019-02-20T16:09:36.456Z,11.5
2019-02-20T16:14:36.665Z,7
2019-02-20T16:19:36.367Z,7
2019-02-20T16:24:36.507Z,5
2019-02-20T16:29:36.316Z,5
2019-02-20T16:34:36.157Z,0
2019-02-20T16:39:37.034Z,0
2019-02-20T16:44:36.236Z,0
2019-02-20T16:49:36.150Z,0
2019-02-20T16:54:37.027Z,0
2019-02-20T16:59:36.282Z,0
2019-02-20T17:04:36.263Z,0
2019-02-20T17:09:36.173Z,0
2019-02-20T17:14:36.622Z,0
2019-02-20T17:19:36.568Z,0
2019-02-20T17:24:36.700Z,0
2019-02-20T17:29:36.782Z,0
2019-02-20T17:34:36.721Z,0
2019-02-20T17:39:36.606Z,0
2019-02-20T17:44:36.442Z,0
2019-02-20T17:49:36.345Z,0
2019-02-20T17:54:36.262Z,0
2019-02-20T17:59:37.093Z,0
2019-02-20T18:04:37.074Z,0
2019-02-20T18:09:36.954Z,0
2019-02-20T18:14:37.131Z,0
2019-02-20T18:19:36.999Z,0
2019-02-20T18:24:36.767Z,0
2019-02-20T18:29:36.515Z,0
2019-02-20T18:34:36.371Z,0
2019-02-20T18:39:36.270Z,0
2019-02-20T18:44:37.090Z,0
2019-02-20T18:49:38.902Z,0
2019-02-20T18:54:36.950Z,0
2019-02-20T18:59:36.754Z,0
2019-02-20T19:04:36.656Z,0
2019-02-20T19:09:36.635Z,0
2019-02-20T19:14:37.108Z,0
2019-02-20T19:19:37.022Z,0
2019-02-20T19:24:36.858Z,0
2019-02-20T19:29:38.471Z,0
2019-02-20T19:34:40.223Z,0
2019-02-20T19:39:36.481Z,0
2019-02-20T19:44:36.280Z,0
2019-02-20T19:49:37.100Z,0
2019-02-20T19:54:36.897Z,0
2019-02-20T19:59:36.610Z,0
2019-02-20T20:04:36.513Z,0
2019-02-20T20:09:38.703Z,0
2019-02-20T20:14:37.231Z,0
2019-02-20T20:19:36.986Z,0
2019-02-20T20:24:36.773Z,0
2019-02-20T20:29:36.551Z,0
2019-02-20T20:34:37.196Z,0
2019-02-20T20:39:36.984Z,0
2019-02-20T20:44:37.144Z,0
2019-02-20T20:49:36.958Z,0
2019-02-20T20:54:36.780Z,0
2019-02-20T20:59:36.508Z,0
2019-02-20T21:04:37.467Z,0
2019-02-20T21:09:36.438Z,0
2019-02-20T21:14:37.058Z,0
2019-02-20T21:19:36.893Z,0
2019-02-20T21:24:36.708Z,0
2019-02-20T21:29:36.445Z,0
2019-02-20T21:34:37.366Z,0
2019-02-20T21:39:37.156Z,0
2019-02-20T21:44:36.963Z,0
2019-02-20T21:49:36.825Z,0
2019-02-20T21:54:36.668Z,0
2019-02-20T21:59:39.076Z,0
2019-02-20T22:04:37.258Z,0
2019-02-20T22:09:37.234Z,0
2019-02-20T22:14:37.319Z,0
2019-02-20T22:19:37.115Z,0
2019-02-20T22:24:36.948Z,0
2019-02-20T22:29:36.736Z,0
2019-02-20T22:34:36.642Z,0
2019-02-20T22:39:37.479Z,0
2019-02-20T22:44:37.343Z,0
2019-02-20T22:49:37.093Z,0
2019-02-20T22:54:36.910Z,0
2019-02-20T22:59:36.787Z,0
2019-02-20T23:04:36.863Z,0
2019-02-20T23:09:36.865Z,0
2019-02-20T23:14:36.815Z,0
2019-02-20T23:19:36.664Z,0
2019-02-20T23:24:37.372Z,0
2019-02-20T23:29:37.313Z,0
2019-02-20T23:34:37.427Z,0
2019-02-20T23:39:37.266Z,0
2019-02-20T23:44:37.100Z,0
2019-02-20T23:49:36.966Z,0
2019-02-20T23:54:36.874Z,0
2019-02-20T23:59:37.391Z,0
